Time;durP1;ratioP1;P1;durP2;ratioP2;P2;SDS_P1;SDS_P2;PMS_P1;PMS_P2;Temp;Humidity;BMP_temperature;BMP_pressure;BME280_temperature;BME280_humidity;BME280_pressure;Samples;Min_cycle;Max_cycle;Signal;HPM_P1;HPM_P2
2021/03/18 00:01:01;;;;;;;3.53;2.80;;;;;;;;;;5088893;28;20029;-68
2021/03/18 00:03:31;;;;;;;3.50;2.70;;;;;;;;;;5082401;28;20075;-64
2021/03/18 00:05:56;;;;;;;4.68;3.30;;;;;;;;;;5088296;28;20059;-67
2021/03/18 00:08:22;;;;;;;3.05;2.38;;;;;;;;;;5082958;28;20071;-65
2021/03/18 00:10:48;;;;;;;4.18;2.67;;;;;;;;;;5088932;28;20048;-65
2021/03/18 00:13:17;;;;;;;3.28;2.47;;;;;;;;;;5088543;28;20119;-67
2021/03/18 00:15:42;;;;;;;4.00;2.65;;;;;;;;;;5087701;28;20095;-65
2021/03/18 00:18:09;;;;;;;4.88;2.90;;;;;;;;;;5088328;28;20403;-68
2021/03/18 00:20:34;;;;;;;4.28;2.72;;;;;;;;;;5087009;28;20049;-66
2021/03/18 00:23:00;;;;;;;4.80;2.75;;;;;;;;;;5087762;28;20044;-67
2021/03/18 00:25:25;;;;;;;4.20;2.88;;;;;;;;;;5087881;28;20082;-67
2021/03/18 00:27:51;;;;;;;3.97;2.63;;;;;;;;;;5087909;28;20051;-67
2021/03/18 00:30:17;;;;;;;3.80;2.95;;;;;;;;;;5069310;28;27390;-69
2021/03/18 00:32:43;;;;;;;4.55;2.95;;;;;;;;;;5088336;28;20037;-66
2021/03/18 00:35:09;;;;;;;3.72;2.70;;;;;;;;;;5088347;28;20040;-67
2021/03/18 00:37:36;;;;;;;3.85;2.60;;;;;;;;;;5086189;28;20045;-68
2021/03/18 00:40:04;;;;;;;3.53;2.90;;;;;;;;;;5079040;28;20480;-70
2021/03/18 00:42:29;;;;;;;4.93;3.00;;;;;;;;;;5087408;28;20032;-69
2021/03/18 00:44:54;;;;;;;4.10;2.80;;;;;;;;;;5079012;28;20059;-63
2021/03/18 00:47:20;;;;;;;4.72;2.83;;;;;;;;;;5087708;28;20044;-68
2021/03/18 00:49:46;;;;;;;4.25;3.22;;;;;;;;;;5085206;28;20097;-66
2021/03/18 00:52:12;;;;;;;4.18;2.75;;;;;;;;;;5086659;28;20044;-67
2021/03/18 00:54:38;;;;;;;4.25;2.90;;;;;;;;;;5085012;28;20044;-74
2021/03/18 00:57:08;;;;;;;3.97;2.70;;;;;;;;;;5081795;28;20048;-66
2021/03/18 00:59:34;;;;;;;3.33;2.65;;;;;;;;;;5075175;28;20090;-72
2021/03/18 01:01:59;;;;;;;3.92;3.10;;;;;;;;;;5085398;28;20043;-67
2021/03/18 01:04:25;;;;;;;4.30;3.00;;;;;;;;;;5086375;28;20048;-64
2021/03/18 01:06:51;;;;;;;3.53;2.50;;;;;;;;;;5084609;28;20048;-70
2021/03/18 01:09:17;;;;;;;4.20;3.10;;;;;;;;;;5086533;28;20054;-68
2021/03/18 01:11:42;;;;;;;3.70;3.00;;;;;;;;;;5086271;28;20052;-69
2021/03/18 01:14:12;;;;;;;4.30;2.75;;;;;;;;;;5087080;28;20044;-71
2021/03/18 01:16:47;;;;;;;4.25;2.90;;;;;;;;;;5085665;28;20075;-70
2021/03/18 01:19:13;;;;;;;4.35;2.78;;;;;;;;;;5051321;28;20048;-70
2021/03/18 01:21:46;;;;;;;3.13;2.47;;;;;;;;;;5084978;28;20116;-73
2021/03/18 01:24:12;;;;;;;3.78;2.63;;;;;;;;;;5086454;28;20048;-70
2021/03/18 01:26:41;;;;;;;2.90;2.47;;;;;;;;;;5061520;28;20048;-69
2021/03/18 01:29:07;;;;;;;4.00;2.67;;;;;;;;;;5086236;28;20108;-74
2021/03/18 01:31:33;;;;;;;3.63;2.80;;;;;;;;;;5067725;28;20056;-69
2021/03/18 01:33:59;;;;;;;3.83;2.90;;;;;;;;;;5067984;28;20043;-72
2021/03/18 01:36:24;;;;;;;4.55;2.95;;;;;;;;;;5078087;28;20498;-64
2021/03/18 01:38:52;;;;;;;3.90;2.78;;;;;;;;;;5085715;28;20044;-68
2021/03/18 01:41:18;;;;;;;3.58;2.80;;;;;;;;;;5085744;28;20041;-67
2021/03/18 01:43:44;;;;;;;3.70;3.05;;;;;;;;;;5085770;28;20044;-65
2021/03/18 01:46:10;;;;;;;3.72;2.85;;;;;;;;;;5085137;28;20049;-70
2021/03/18 01:48:35;;;;;;;5.25;3.10;;;;;;;;;;5057606;28;591289;-68
2021/03/18 01:51:01;;;;;;;4.25;2.90;;;;;;;;;;5086550;28;20940;-72
2021/03/18 01:53:27;;;;;;;4.10;2.63;;;;;;;;;;5086309;28;20494;-68
2021/03/18 01:55:53;;;;;;;3.58;3.00;;;;;;;;;;5076687;28;20686;-64
2021/03/18 01:58:19;;;;;;;4.55;2.97;;;;;;;;;;5087053;28;20048;-66
2021/03/18 02:00:46;;;;;;;4.45;3.10;;;;;;;;;;5061189;28;20364;-64
2021/03/18 02:03:12;;;;;;;4.65;3.20;;;;;;;;;;5087028;28;20058;-70
2021/03/18 02:05:37;;;;;;;4.25;2.72;;;;;;;;;;5080530;28;20040;-64
2021/03/18 02:08:03;;;;;;;3.97;2.75;;;;;;;;;;5083441;28;20453;-68
2021/03/18 02:10:30;;;;;;;3.25;2.58;;;;;;;;;;5076773;28;20456;-68
2021/03/18 02:12:56;;;;;;;3.65;2.67;;;;;;;;;;5078221;28;20542;-70
2021/03/18 02:15:33;;;;;;;3.15;2.55;;;;;;;;;;5086708;28;20051;-67
2021/03/18 02:18:19;;;;;;;4.57;2.80;;;;;;;;;;5086902;28;20187;-65
2021/03/18 02:21:14;;;;;;;3.30;2.58;;;;;;;;;;5085005;28;20102;-66
2021/03/18 02:24:08;;;;;;;3.10;2.65;;;;;;;;;;5067868;28;20048;-66
2021/03/18 02:26:33;;;;;;;3.53;2.85;;;;;;;;;;5086263;28;20041;-65
2021/03/18 02:28:58;;;;;;;3.65;2.42;;;;;;;;;;5087205;28;20040;-69
2021/03/18 02:32:01;;;;;;;3.38;2.70;;;;;;;;;;5086323;28;20055;-64
2021/03/18 02:34:27;;;;;;;4.18;2.97;;;;;;;;;;5034703;28;20088;-64
2021/03/18 02:36:54;;;;;;;4.22;3.00;;;;;;;;;;5086563;28;20416;-65
2021/03/18 02:39:28;;;;;;;4.38;3.10;;;;;;;;;;5063353;28;20053;-64
2021/03/18 02:41:56;;;;;;;4.43;3.10;;;;;;;;;;5067854;28;20044;-63
2021/03/18 02:44:23;;;;;;;4.90;3.30;;;;;;;;;;5080490;28;20048;-63
2021/03/18 02:46:52;;;;;;;4.55;3.25;;;;;;;;;;5085258;28;20125;-67
2021/03/18 02:49:18;;;;;;;4.38;2.90;;;;;;;;;;5050827;28;20044;-64
2021/03/18 02:51:43;;;;;;;3.60;2.70;;;;;;;;;;5084516;28;27076;-65
2021/03/18 02:54:10;;;;;;;4.93;3.25;;;;;;;;;;5084899;28;20040;-71
2021/03/18 02:56:38;;;;;;;5.28;3.10;;;;;;;;;;5084948;28;20036;-66
2021/03/18 02:59:04;;;;;;;4.13;2.92;;;;;;;;;;5061213;28;20048;-66
2021/03/18 03:01:30;;;;;;;4.50;3.33;;;;;;;;;;5060784;28;20045;-72
2021/03/18 03:03:55;;;;;;;4.60;3.55;;;;;;;;;;5084727;28;20542;-66
2021/03/18 03:06:21;;;;;;;5.05;3.45;;;;;;;;;;5062742;28;20190;-66
2021/03/18 03:08:46;;;;;;;4.78;3.15;;;;;;;;;;5060859;28;21643;-70
2021/03/18 03:11:12;;;;;;;5.43;3.38;;;;;;;;;;5064282;28;20094;-66
2021/03/18 03:13:40;;;;;;;4.88;3.33;;;;;;;;;;5073927;28;20048;-67
2021/03/18 03:16:07;;;;;;;4.90;3.47;;;;;;;;;;5074959;28;20124;-71
2021/03/18 03:18:33;;;;;;;4.20;2.75;;;;;;;;;;5083816;28;20106;-70
2021/03/18 03:20:58;;;;;;;5.38;3.50;;;;;;;;;;5060348;28;25790;-72
2021/03/18 03:23:24;;;;;;;4.35;3.22;;;;;;;;;;5067067;28;20632;-65
2021/03/18 03:25:49;;;;;;;4.43;3.38;;;;;;;;;;5085153;28;20162;-68
2021/03/18 03:28:15;;;;;;;5.40;3.72;;;;;;;;;;5062239;28;26678;-68
2021/03/18 03:30:40;;;;;;;5.20;3.70;;;;;;;;;;5079470;28;20044;-72
2021/03/18 03:33:06;;;;;;;5.10;3.60;;;;;;;;;;5083859;28;20675;-70
2021/03/18 03:35:33;;;;;;;4.43;3.20;;;;;;;;;;5085221;28;20048;-70
2021/03/18 03:37:58;;;;;;;4.90;3.38;;;;;;;;;;5085689;28;20036;-72
2021/03/18 03:40:24;;;;;;;5.03;3.47;;;;;;;;;;5085272;28;20040;-65
2021/03/18 03:42:49;;;;;;;5.32;3.60;;;;;;;;;;5083845;28;20055;-68
2021/03/18 03:45:15;;;;;;;5.22;3.55;;;;;;;;;;5084945;28;20066;-68
2021/03/18 03:47:41;;;;;;;5.18;3.75;;;;;;;;;;5076733;28;20480;-68
2021/03/18 03:50:08;;;;;;;5.32;3.47;;;;;;;;;;5067977;28;20048;-68
2021/03/18 03:53:11;;;;;;;5.47;4.00;;;;;;;;;;5057329;28;20067;-74
2021/03/18 03:55:45;;;;;;;5.53;3.80;;;;;;;;;;5084127;28;20041;-67
2021/03/18 03:58:15;;;;;;;6.07;3.95;;;;;;;;;;5071855;28;20120;-65
2021/03/18 04:00:41;;;;;;;6.10;3.95;;;;;;;;;;5079891;28;20044;-70
2021/03/18 04:03:07;;;;;;;5.13;4.03;;;;;;;;;;5063209;28;20049;-71
2021/03/18 04:05:32;;;;;;;6.05;4.13;;;;;;;;;;5084973;28;20655;-71
2021/03/18 04:08:00;;;;;;;5.85;4.30;;;;;;;;;;5060024;28;20041;-64
2021/03/18 04:10:26;;;;;;;5.38;4.15;;;;;;;;;;5084781;28;20580;-68
2021/03/18 04:12:51;;;;;;;6.20;4.35;;;;;;;;;;5084408;28;20040;-65
2021/03/18 04:15:17;;;;;;;5.82;4.18;;;;;;;;;;5062439;28;20053;-67
2021/03/18 04:17:45;;;;;;;4.95;3.80;;;;;;;;;;5057189;28;20073;-69
2021/03/18 04:20:12;;;;;;;5.28;4.13;;;;;;;;;;5059884;28;20470;-71
2021/03/18 04:22:37;;;;;;;5.03;3.63;;;;;;;;;;5088546;28;20490;-66
2021/03/18 04:25:04;;;;;;;5.40;3.65;;;;;;;;;;5059732;28;20045;-69
2021/03/18 04:27:35;;;;;;;5.65;3.67;;;;;;;;;;5060957;28;20089;-68
2021/03/18 04:30:01;;;;;;;4.47;3.65;;;;;;;;;;5058846;28;20041;-68
2021/03/18 04:32:26;;;;;;;4.65;3.90;;;;;;;;;;5061899;28;20885;-65
2021/03/18 04:34:53;;;;;;;5.03;3.80;;;;;;;;;;5083532;28;20756;-68
2021/03/18 04:37:18;;;;;;;5.40;3.80;;;;;;;;;;5059261;28;20637;-70
2021/03/18 04:39:44;;;;;;;4.68;3.60;;;;;;;;;;5084027;28;20048;-64
2021/03/18 04:42:09;;;;;;;5.20;3.97;;;;;;;;;;5060584;28;20045;-64
2021/03/18 04:44:35;;;;;;;4.72;3.70;;;;;;;;;;5078964;28;20052;-68
2021/03/18 04:47:01;;;;;;;6.28;4.30;;;;;;;;;;5082233;28;20044;-66
2021/03/18 04:49:26;;;;;;;5.68;3.88;;;;;;;;;;5088503;28;20040;-66
2021/03/18 04:51:52;;;;;;;5.85;4.05;;;;;;;;;;5065554;28;20102;-67
2021/03/18 04:54:18;;;;;;;5.68;4.22;;;;;;;;;;5062539;28;20041;-66
2021/03/18 04:56:44;;;;;;;7.38;4.50;;;;;;;;;;5088824;28;20078;-67
2021/03/18 04:59:12;;;;;;;6.25;4.10;;;;;;;;;;5088507;28;20047;-68
2021/03/18 05:01:37;;;;;;;5.95;4.50;;;;;;;;;;5062046;28;20036;-68
2021/03/18 05:04:03;;;;;;;6.72;4.28;;;;;;;;;;5086896;28;20052;-69
2021/03/18 05:06:28;;;;;;;4.65;3.75;;;;;;;;;;5081532;28;20036;-69
2021/03/18 05:08:54;;;;;;;5.47;4.53;;;;;;;;;;5086173;28;20045;-68
2021/03/18 05:11:19;;;;;;;5.18;3.95;;;;;;;;;;5061758;28;20059;-65
2021/03/18 05:13:45;;;;;;;5.70;4.43;;;;;;;;;;5061612;28;20433;-63
2021/03/18 05:16:10;;;;;;;7.13;4.90;;;;;;;;;;5058274;28;20037;-69
2021/03/18 05:18:36;;;;;;;6.30;4.50;;;;;;;;;;5061722;28;20044;-68
2021/03/18 05:21:03;;;;;;;6.55;4.57;;;;;;;;;;5062265;28;20581;-74
2021/03/18 05:23:28;;;;;;;5.47;4.43;;;;;;;;;;5088058;28;20055;-71
2021/03/18 05:25:54;;;;;;;5.78;4.40;;;;;;;;;;5085910;28;20051;-69
2021/03/18 05:28:19;;;;;;;5.57;4.35;;;;;;;;;;5087636;28;20052;-67
2021/03/18 05:30:45;;;;;;;6.22;4.50;;;;;;;;;;5087643;28;20094;-64
2021/03/18 05:33:10;;;;;;;6.25;4.38;;;;;;;;;;5086972;28;20646;-69
2021/03/18 05:35:40;;;;;;;6.32;4.60;;;;;;;;;;5075433;28;20048;-67
2021/03/18 05:38:07;;;;;;;8.18;4.78;;;;;;;;;;5087087;28;20044;-72
2021/03/18 05:40:33;;;;;;;6.35;4.20;;;;;;;;;;5086764;28;20040;-71
2021/03/18 05:42:59;;;;;;;6.00;4.57;;;;;;;;;;5086945;28;20036;-69
2021/03/18 05:45:24;;;;;;;5.40;4.13;;;;;;;;;;5067878;28;20052;-66
2021/03/18 05:47:50;;;;;;;5.78;4.30;;;;;;;;;;5084118;28;20049;-65
2021/03/18 05:50:17;;;;;;;6.93;4.40;;;;;;;;;;5077537;28;20098;-64
2021/03/18 05:52:43;;;;;;;6.25;4.45;;;;;;;;;;5066825;28;20947;-69
2021/03/18 05:55:09;;;;;;;6.50;4.65;;;;;;;;;;5085175;28;20094;-69
2021/03/18 05:57:35;;;;;;;6.78;4.70;;;;;;;;;;5063447;28;20502;-68
2021/03/18 06:00:05;;;;;;;5.38;3.72;;;;;;;;;;5087136;28;20501;-69
2021/03/18 06:02:32;;;;;;;3.95;3.08;;;;;;;;;;5086438;28;20120;-69
2021/03/18 06:04:58;;;;;;;3.95;3.08;;;;;;;;;;5058299;28;20167;-63
2021/03/18 06:07:23;;;;;;;3.60;2.85;;;;;;;;;;5084710;28;20392;-67
2021/03/18 06:09:49;;;;;;;3.17;2.35;;;;;;;;;;5085754;28;20460;-68
2021/03/18 06:12:14;;;;;;;2.70;2.20;;;;;;;;;;5074091;28;20056;-64
2021/03/18 06:14:40;;;;;;;2.20;1.80;;;;;;;;;;5073766;28;20066;-68
2021/03/18 06:17:05;;;;;;;1.75;1.45;;;;;;;;;;5086095;28;20048;-67
2021/03/18 06:19:31;;;;;;;1.83;1.40;;;;;;;;;;5084853;28;20632;-69
2021/03/18 06:21:57;;;;;;;1.60;1.42;;;;;;;;;;5084312;28;20105;-68
2021/03/18 06:24:27;;;;;;;1.63;1.30;;;;;;;;;;5085023;28;20123;-70
2021/03/18 06:26:52;;;;;;;2.30;1.48;;;;;;;;;;5074128;28;20135;-66
2021/03/18 06:29:31;;;;;;;1.48;1.33;;;;;;;;;;5085022;28;20039;-67
2021/03/18 06:32:00;;;;;;;1.85;1.35;;;;;;;;;;5084829;28;20041;-65
2021/03/18 06:34:44;;;;;;;1.42;1.15;;;;;;;;;;5073493;28;20045;-67
2021/03/18 06:37:28;;;;;;;2.13;1.50;;;;;;;;;;5084832;28;20040;-69
2021/03/18 06:39:54;;;;;;;1.15;1.00;;;;;;;;;;5084335;28;20048;-65
2021/03/18 06:42:19;;;;;;;1.45;1.13;;;;;;;;;;5057900;28;20115;-65
2021/03/18 06:44:45;;;;;;;1.50;1.20;;;;;;;;;;5084316;28;20059;-69
2021/03/18 06:47:10;;;;;;;2.05;1.45;;;;;;;;;;5084265;28;20093;-66
2021/03/18 06:49:36;;;;;;;6.45;4.38;;;;;;;;;;5083626;28;20049;-68
2021/03/18 06:52:12;;;;;;;5.90;4.55;;;;;;;;;;5083877;28;20048;-72
2021/03/18 06:54:42;;;;;;;7.13;4.82;;;;;;;;;;5084706;28;20052;-70
2021/03/18 06:57:08;;;;;;;4.80;3.70;;;;;;;;;;5082688;28;20045;-67
2021/03/18 06:59:42;;;;;;;4.05;2.67;;;;;;;;;;5084947;28;20037;-64
2021/03/18 07:02:13;;;;;;;3.55;2.30;;;;;;;;;;5065039;28;20491;-67
2021/03/18 07:04:43;;;;;;;2.75;1.90;;;;;;;;;;5083447;28;20071;-65
2021/03/18 07:07:09;;;;;;;2.15;1.58;;;;;;;;;;5082171;28;20450;-66
2021/03/18 07:09:36;;;;;;;2.42;1.48;;;;;;;;;;5085155;28;20497;-70
2021/03/18 07:12:09;;;;;;;2.00;1.20;;;;;;;;;;5084661;28;20068;-64
2021/03/18 07:14:38;;;;;;;1.60;1.05;;;;;;;;;;5085128;28;20073;-78
2021/03/18 07:17:04;;;;;;;1.60;1.10;;;;;;;;;;5085919;28;20052;-68
2021/03/18 07:19:29;;;;;;;2.05;1.20;;;;;;;;;;5084552;28;20044;-67
2021/03/18 07:21:55;;;;;;;1.88;1.50;;;;;;;;;;5067320;28;20044;-66
2021/03/18 07:24:27;;;;;;;1.52;1.30;;;;;;;;;;5073286;28;20047;-71
2021/03/18 07:26:53;;;;;;;1.95;1.40;;;;;;;;;;5085438;28;20510;-70
2021/03/18 07:29:25;;;;;;;1.38;1.27;;;;;;;;;;5057410;28;20479;-64
2021/03/18 07:31:50;;;;;;;2.33;1.45;;;;;;;;;;5085041;28;20041;-66
2021/03/18 07:34:16;;;;;;;1.65;1.10;;;;;;;;;;5074550;28;20041;-65
2021/03/18 07:36:42;;;;;;;1.05;0.90;;;;;;;;;;5085965;28;20048;-66
2021/03/18 07:39:07;;;;;;;1.73;1.00;;;;;;;;;;5086212;28;20044;-67
2021/03/18 07:41:33;;;;;;;1.48;1.00;;;;;;;;;;5086241;28;20098;-71
2021/03/18 07:43:59;;;;;;;1.27;0.98;;;;;;;;;;5073548;28;20402;-74
2021/03/18 07:46:24;;;;;;;1.85;1.40;;;;;;;;;;5085704;28;20102;-69
2021/03/18 07:48:52;;;;;;;2.10;1.80;;;;;;;;;;5048157;28;20044;-66
2021/03/18 07:51:18;;;;;;;4.28;2.15;;;;;;;;;;5059616;28;20048;-69
2021/03/18 07:53:51;;;;;;;3.47;2.40;;;;;;;;;;5083869;28;20094;-69
2021/03/18 07:56:16;;;;;;;4.78;3.05;;;;;;;;;;5073727;28;20053;-65
2021/03/18 07:58:43;;;;;;;6.20;4.28;;;;;;;;;;5083373;28;20530;-68
2021/03/18 08:01:30;;;;;;;5.90;4.05;;;;;;;;;;5085354;28;20626;-69
2021/03/18 08:03:57;;;;;;;4.80;3.17;;;;;;;;;;5084925;28;20044;-68
2021/03/18 08:06:40;;;;;;;5.43;3.53;;;;;;;;;;5085372;28;20044;-67
2021/03/18 08:09:16;;;;;;;6.07;4.55;;;;;;;;;;5082957;28;20059;-70
2021/03/18 08:11:46;;;;;;;8.23;6.10;;;;;;;;;;5074357;28;20883;-67
2021/03/18 08:14:16;;;;;;;7.30;5.45;;;;;;;;;;5059176;28;20051;-68
2021/03/18 08:16:41;;;;;;;6.00;4.22;;;;;;;;;;5075864;28;20075;-66
2021/03/18 08:19:11;;;;;;;5.47;3.20;;;;;;;;;;5076466;28;20056;-71
2021/03/18 08:21:37;;;;;;;2.72;2.28;;;;;;;;;;5088394;28;20048;-68
2021/03/18 08:24:07;;;;;;;2.72;1.90;;;;;;;;;;5088875;28;20439;-70
2021/03/18 08:26:49;;;;;;;2.47;1.60;;;;;;;;;;5076224;28;20053;-68
2021/03/18 08:29:22;;;;;;;6.07;3.65;;;;;;;;;;5086728;28;20065;-67
2021/03/18 08:31:58;;;;;;;5.50;3.85;;;;;;;;;;5088456;28;20095;-70
2021/03/18 08:34:50;;;;;;;5.47;4.00;;;;;;;;;;5086741;28;20041;-70
2021/03/18 08:37:30;;;;;;;5.90;3.88;;;;;;;;;;5088440;28;20051;-68
2021/03/18 08:39:55;;;;;;;5.60;4.05;;;;;;;;;;5062549;28;20040;-72
2021/03/18 08:42:30;;;;;;;6.35;3.83;;;;;;;;;;5087024;28;20492;-65
2021/03/18 08:45:09;;;;;;;6.72;3.78;;;;;;;;;;5086480;28;20110;-68
2021/03/18 08:47:40;;;;;;;5.43;2.80;;;;;;;;;;5086405;28;20504;-66
2021/03/18 08:50:08;;;;;;;4.57;3.05;;;;;;;;;;5073332;28;20114;-66
2021/03/18 08:52:41;;;;;;;5.65;3.08;;;;;;;;;;5085104;28;20048;-67
2021/03/18 08:55:11;;;;;;;5.97;3.30;;;;;;;;;;5072467;28;20048;-70
2021/03/18 08:57:37;;;;;;;5.28;3.08;;;;;;;;;;5092431;28;20487;-69
2021/03/18 09:00:20;;;;;;;5.65;3.35;;;;;;;;;;5087184;28;20048;-72
2021/03/18 09:02:46;;;;;;;5.10;3.25;;;;;;;;;;5087987;28;20048;-68
2021/03/18 09:05:13;;;;;;;5.07;3.38;;;;;;;;;;5087914;28;20109;-69
2021/03/18 09:07:38;;;;;;;6.18;3.30;;;;;;;;;;5087127;28;20052;-70
2021/03/18 09:10:13;;;;;;;6.22;3.28;;;;;;;;;;5072709;28;20422;-68
2021/03/18 09:12:48;;;;;;;6.30;3.33;;;;;;;;;;5081754;28;20118;-69
2021/03/18 09:15:16;;;;;;;5.70;3.30;;;;;;;;;;5086456;28;20051;-67
2021/03/18 09:17:46;;;;;;;6.07;3.17;;;;;;;;;;5087160;28;20120;-64
2021/03/18 09:20:15;;;;;;;4.82;3.00;;;;;;;;;;5086504;28;20044;-68
2021/03/18 09:22:41;;;;;;;7.03;3.80;;;;;;;;;;5086935;28;20045;-65
2021/03/18 09:25:07;;;;;;;5.95;3.47;;;;;;;;;;5069565;28;20127;-69
2021/03/18 09:27:40;;;;;;;5.70;3.63;;;;;;;;;;5087247;28;20044;-69
2021/03/18 09:30:18;;;;;;;7.90;3.78;;;;;;;;;;5082965;28;20047;-68
2021/03/18 09:32:44;;;;;;;7.55;3.63;;;;;;;;;;5086124;28;20110;-68
2021/03/18 09:35:13;;;;;;;5.70;3.47;;;;;;;;;;5085335;28;20889;-69
2021/03/18 09:37:39;;;;;;;5.45;3.50;;;;;;;;;;5086632;28;20930;-71
2021/03/18 09:40:05;;;;;;;5.90;3.58;;;;;;;;;;5087182;28;20047;-67
2021/03/18 09:42:34;;;;;;;4.60;3.20;;;;;;;;;;5087020;28;20160;-68
2021/03/18 09:45:03;;;;;;;4.70;3.08;;;;;;;;;;5086562;28;20060;-68
2021/03/18 09:47:31;;;;;;;4.38;2.85;;;;;;;;;;5086436;28;20728;-68
2021/03/18 09:50:01;;;;;;;5.73;3.10;;;;;;;;;;5086253;28;20040;-68
2021/03/18 09:52:29;;;;;;;6.50;3.38;;;;;;;;;;5084972;28;20048;-65
2021/03/18 09:55:02;;;;;;;6.03;3.50;;;;;;;;;;5085260;28;21331;-66
2021/03/18 09:57:29;;;;;;;6.07;3.13;;;;;;;;;;5076312;28;21020;-65
2021/03/18 09:59:57;;;;;;;5.97;3.42;;;;;;;;;;5085378;28;20123;-65
2021/03/18 10:02:32;;;;;;;5.13;3.00;;;;;;;;;;5084801;28;20522;-62
2021/03/18 10:05:00;;;;;;;4.82;3.20;;;;;;;;;;5074681;28;20083;-63
2021/03/18 10:07:27;;;;;;;6.40;3.58;;;;;;;;;;5084946;28;20044;-64
2021/03/18 10:09:52;;;;;;;4.43;2.72;;;;;;;;;;5086745;28;20078;-65
2021/03/18 10:12:20;;;;;;;5.80;2.85;;;;;;;;;;5086816;28;20103;-67
2021/03/18 10:14:55;;;;;;;5.38;3.13;;;;;;;;;;5085283;28;20047;-65
2021/03/18 10:17:44;;;;;;;5.57;3.53;;;;;;;;;;5084797;28;20106;-67
2021/03/18 10:20:32;;;;;;;7.20;4.32;;;;;;;;;;5066567;28;20060;-65
2021/03/18 10:23:01;;;;;;;5.55;3.45;;;;;;;;;;5088161;28;20605;-63
2021/03/18 10:25:28;;;;;;;8.50;4.43;;;;;;;;;;5086834;28;20172;-65
2021/03/18 10:27:59;;;;;;;8.23;4.18;;;;;;;;;;5074019;28;20062;-66
2021/03/18 10:30:25;;;;;;;9.25;4.95;;;;;;;;;;5057741;28;20519;-63
2021/03/18 10:33:07;;;;;;;7.32;4.00;;;;;;;;;;5087589;28;20052;-67
2021/03/18 10:35:35;;;;;;;7.32;4.18;;;;;;;;;;5085248;28;20937;-69
2021/03/18 10:38:01;;;;;;;7.75;4.38;;;;;;;;;;5076774;28;20043;-64
2021/03/18 10:40:28;;;;;;;7.05;4.20;;;;;;;;;;5066344;28;20964;-66
2021/03/18 10:42:57;;;;;;;7.68;4.45;;;;;;;;;;5084194;28;20048;-63
2021/03/18 10:45:28;;;;;;;8.10;4.90;;;;;;;;;;5086546;28;20052;-66
2021/03/18 10:47:58;;;;;;;8.95;4.70;;;;;;;;;;5085017;28;20103;-62
2021/03/18 10:50:26;;;;;;;8.48;4.68;;;;;;;;;;5084784;28;20049;-63
2021/03/18 10:53:06;;;;;;;8.95;4.88;;;;;;;;;;5084608;28;20040;-66
2021/03/18 10:55:34;;;;;;;9.02;4.78;;;;;;;;;;5083431;28;20094;-64
2021/03/18 10:58:07;;;;;;;7.82;4.80;;;;;;;;;;5086586;28;20041;-65
2021/03/18 11:00:35;;;;;;;8.88;5.40;;;;;;;;;;5085133;28;20118;-66
2021/03/18 11:03:06;;;;;;;8.88;5.20;;;;;;;;;;5086520;28;20033;-65
2021/03/18 11:05:34;;;;;;;10.02;5.00;;;;;;;;;;5085786;28;20044;-71
2021/03/18 11:08:00;;;;;;;9.77;5.25;;;;;;;;;;5084105;28;20080;-65
2021/03/18 11:10:36;;;;;;;8.93;5.25;;;;;;;;;;5039806;28;20041;-65
2021/03/18 11:13:05;;;;;;;10.05;5.63;;;;;;;;;;5085081;28;20060;-70
2021/03/18 11:16:04;;;;;;;10.18;6.07;;;;;;;;;;5056005;28;20095;-65
2021/03/18 11:18:43;;;;;;;9.98;5.85;;;;;;;;;;5084775;28;20611;-63
2021/03/18 11:21:26;;;;;;;9.07;5.68;;;;;;;;;;5082538;28;20548;-71
2021/03/18 11:23:53;;;;;;;10.00;5.93;;;;;;;;;;5071037;28;20135;-66
2021/03/18 11:26:20;;;;;;;9.32;5.20;;;;;;;;;;5057051;28;20048;-67
2021/03/18 11:29:12;;;;;;;10.13;6.00;;;;;;;;;;5083793;28;20049;-67
2021/03/18 11:31:39;;;;;;;9.60;5.68;;;;;;;;;;5081847;28;20070;-69
2021/03/18 11:34:19;;;;;;;9.13;5.50;;;;;;;;;;5082097;28;20052;-67
2021/03/18 11:36:49;;;;;;;9.45;5.55;;;;;;;;;;5083315;28;20044;-66
2021/03/18 11:39:15;;;;;;;9.60;5.82;;;;;;;;;;5082141;28;20055;-67
2021/03/18 11:41:41;;;;;;;10.05;5.95;;;;;;;;;;5083782;28;20904;-70
2021/03/18 11:44:06;;;;;;;10.13;5.75;;;;;;;;;;5083892;28;20380;-67
2021/03/18 11:46:32;;;;;;;8.00;4.90;;;;;;;;;;5083063;28;20410;-69
2021/03/18 11:48:57;;;;;;;10.10;5.72;;;;;;;;;;5072049;28;20048;-68
2021/03/18 11:51:23;;;;;;;8.05;5.10;;;;;;;;;;5078311;28;20041;-67
2021/03/18 11:53:50;;;;;;;7.68;4.65;;;;;;;;;;5087010;28;20441;-65
2021/03/18 11:56:16;;;;;;;7.90;4.78;;;;;;;;;;5088586;28;20470;-66
2021/03/18 11:58:41;;;;;;;7.85;4.40;;;;;;;;;;5082242;28;20047;-66
2021/03/18 12:01:07;;;;;;;7.55;4.32;;;;;;;;;;5088331;28;20044;-65
2021/03/18 12:03:32;;;;;;;7.63;5.10;;;;;;;;;;5079389;28;20109;-67
2021/03/18 12:05:58;;;;;;;10.52;7.05;;;;;;;;;;5088088;28;20040;-66
2021/03/18 12:08:23;;;;;;;11.02;7.25;;;;;;;;;;5087822;28;20055;-64
2021/03/18 12:10:49;;;;;;;12.05;7.00;;;;;;;;;;5087118;28;20473;-66
2021/03/18 12:13:14;;;;;;;8.80;5.90;;;;;;;;;;5086394;28;20044;-67
2021/03/18 12:15:40;;;;;;;7.75;5.13;;;;;;;;;;5069594;28;20687;-68
2021/03/18 12:18:06;;;;;;;7.38;4.82;;;;;;;;;;5087195;28;20048;-72
2021/03/18 12:20:31;;;;;;;6.95;4.25;;;;;;;;;;5088532;28;20486;-65
2021/03/18 12:22:57;;;;;;;6.88;4.22;;;;;;;;;;5088170;28;20053;-66
2021/03/18 12:25:22;;;;;;;6.85;4.00;;;;;;;;;;5087750;28;20106;-68
2021/03/18 12:27:48;;;;;;;6.13;3.80;;;;;;;;;;5087914;28;20045;-69
2021/03/18 12:30:15;;;;;;;6.63;4.05;;;;;;;;;;5076311;28;20077;-69
2021/03/18 12:32:41;;;;;;;5.97;3.97;;;;;;;;;;5088098;28;20099;-68
2021/03/18 12:35:07;;;;;;;6.85;3.97;;;;;;;;;;5086938;28;20136;-67
2021/03/18 12:37:33;;;;;;;7.15;4.55;;;;;;;;;;5087751;28;20051;-66
2021/03/18 12:39:59;;;;;;;8.55;5.10;;;;;;;;;;5088098;28;20530;-69
2021/03/18 12:42:25;;;;;;;6.22;4.13;;;;;;;;;;5069780;28;20045;-65
2021/03/18 12:44:50;;;;;;;6.35;3.97;;;;;;;;;;5086743;28;20494;-64
2021/03/18 12:47:16;;;;;;;6.25;3.58;;;;;;;;;;5088089;28;20071;-64
2021/03/18 12:49:44;;;;;;;5.78;3.58;;;;;;;;;;5087255;28;20040;-70
2021/03/18 12:52:09;;;;;;;4.57;2.83;;;;;;;;;;5088255;28;20356;-67
2021/03/18 12:54:35;;;;;;;5.95;3.13;;;;;;;;;;5088543;28;20186;-67
2021/03/18 12:57:00;;;;;;;4.07;2.85;;;;;;;;;;5070543;28;20040;-69
2021/03/18 12:59:26;;;;;;;4.65;3.10;;;;;;;;;;5087243;28;20541;-64
2021/03/18 13:01:52;;;;;;;5.43;2.97;;;;;;;;;;5086746;28;20544;-67
2021/03/18 13:04:17;;;;;;;5.35;3.50;;;;;;;;;;5087171;28;20044;-65
2021/03/18 13:06:43;;;;;;;6.05;3.83;;;;;;;;;;5088068;28;20048;-66
2021/03/18 13:09:09;;;;;;;6.50;3.92;;;;;;;;;;5088288;28;20052;-68
2021/03/18 13:11:34;;;;;;;6.22;3.63;;;;;;;;;;5059350;28;20041;-65
2021/03/18 13:14:00;;;;;;;6.72;3.83;;;;;;;;;;5088312;28;20094;-65
2021/03/18 13:16:25;;;;;;;5.68;3.88;;;;;;;;;;5087591;28;20040;-67
2021/03/18 13:18:51;;;;;;;6.95;4.18;;;;;;;;;;5069553;28;20578;-65
2021/03/18 13:21:17;;;;;;;6.85;4.28;;;;;;;;;;5087713;28;20036;-68
2021/03/18 13:23:42;;;;;;;7.30;3.75;;;;;;;;;;5086221;28;20456;-64
2021/03/18 13:26:08;;;;;;;5.78;3.20;;;;;;;;;;5087441;28;20044;-69
2021/03/18 13:28:33;;;;;;;6.15;4.15;;;;;;;;;;5086052;28;20498;-67
2021/03/18 13:30:58;;;;;;;7.38;4.53;;;;;;;;;;5088037;28;20045;-65
2021/03/18 13:33:26;;;;;;;6.70;4.10;;;;;;;;;;5087511;28;20102;-69
2021/03/18 13:36:29;;;;;;;8.00;4.28;;;;;;;;;;5087724;28;20261;-64
2021/03/18 13:38:55;;;;;;;7.60;4.20;;;;;;;;;;5074949;28;20051;-64
2021/03/18 13:41:21;;;;;;;7.38;4.32;;;;;;;;;;5086821;28;20051;-65
2021/03/18 13:43:47;;;;;;;6.45;3.92;;;;;;;;;;5086527;28;20509;-63
2021/03/18 13:46:13;;;;;;;8.48;4.55;;;;;;;;;;5084939;28;20044;-66
2021/03/18 13:48:38;;;;;;;6.93;4.22;;;;;;;;;;5085802;28;20043;-64
2021/03/18 13:51:04;;;;;;;6.28;4.00;;;;;;;;;;5087016;28;20068;-70
2021/03/18 13:53:30;;;;;;;7.97;4.97;;;;;;;;;;5078771;28;20418;-66
2021/03/18 13:55:57;;;;;;;8.15;4.70;;;;;;;;;;5086872;28;20687;-64
2021/03/18 13:58:22;;;;;;;8.00;4.85;;;;;;;;;;5086533;28;20045;-66
2021/03/18 14:00:48;;;;;;;7.88;4.70;;;;;;;;;;5087174;28;20067;-64
2021/03/18 14:03:13;;;;;;;7.60;4.63;;;;;;;;;;5086584;28;20064;-67
2021/03/18 14:05:39;;;;;;;6.57;4.35;;;;;;;;;;5086762;28;20044;-68
2021/03/18 14:08:05;;;;;;;9.15;5.10;;;;;;;;;;5083801;28;20450;-67
2021/03/18 14:10:32;;;;;;;8.43;5.10;;;;;;;;;;5087049;28;20123;-65
2021/03/18 14:13:00;;;;;;;7.55;4.35;;;;;;;;;;5086667;28;20044;-67
2021/03/18 14:15:27;;;;;;;7.47;4.57;;;;;;;;;;5085025;28;20479;-69
2021/03/18 14:17:52;;;;;;;8.85;4.88;;;;;;;;;;5085416;28;20044;-68
2021/03/18 14:20:20;;;;;;;8.10;4.75;;;;;;;;;;5086084;28;20040;-70
2021/03/18 14:22:46;;;;;;;7.80;4.57;;;;;;;;;;5085919;28;20513;-70
2021/03/18 14:25:12;;;;;;;8.15;4.85;;;;;;;;;;5084895;28;20040;-69
2021/03/18 14:27:38;;;;;;;7.20;4.57;;;;;;;;;;5086302;28;20122;-70
2021/03/18 14:30:05;;;;;;;8.32;4.80;;;;;;;;;;5084777;28;20399;-72
2021/03/18 14:32:31;;;;;;;6.68;4.18;;;;;;;;;;5068180;28;20614;-66
2021/03/18 14:34:56;;;;;;;7.32;4.50;;;;;;;;;;5086254;28;20094;-66
2021/03/18 14:37:22;;;;;;;7.63;4.45;;;;;;;;;;5086664;28;20394;-69
2021/03/18 14:39:47;;;;;;;9.20;4.97;;;;;;;;;;5086540;28;20372;-68
2021/03/18 14:42:13;;;;;;;8.38;4.78;;;;;;;;;;5086318;28;20040;-69
2021/03/18 14:44:38;;;;;;;7.88;4.47;;;;;;;;;;5068458;28;20498;-70
2021/03/18 14:47:04;;;;;;;6.50;4.00;;;;;;;;;;5084905;28;20040;-69
2021/03/18 14:49:29;;;;;;;7.97;4.50;;;;;;;;;;5084645;28;20045;-69